createdAt,value
2022-08-12T00:00:32.565Z,101261.06
2022-08-12T00:03:22.898Z,101259.73
2022-08-12T00:06:12.525Z,101250.63
2022-08-12T00:09:01.609Z,101259.85
2022-08-12T00:11:50.743Z,101256.34
2022-08-12T00:14:39.703Z,101259.31
2022-08-12T00:17:28.858Z,101257.31
2022-08-12T00:20:19.063Z,101255.94
2022-08-12T00:23:09.120Z,101256.72
2022-08-12T00:26:23.696Z,101265.64
2022-08-12T00:28:54.131Z,101258.34
2022-08-12T00:31:42.724Z,101234.50
2022-08-12T00:34:36.236Z,101258.84
2022-08-12T00:37:25.561Z,101257.40
2022-08-12T00:40:16.593Z,101254.42
2022-08-12T00:42:49.170Z,101258.55
2022-08-12T00:45:21.204Z,101258.23
2022-08-12T00:47:54.883Z,101260.92
2022-08-12T00:50:28.881Z,101259.19
2022-08-12T00:53:01.499Z,101256.72
2022-08-12T00:55:33.150Z,101248.55
2022-08-12T00:58:07.173Z,101260.91
2022-08-12T01:00:40.383Z,101262.91
2022-08-12T01:03:15.322Z,101265.38
2022-08-12T01:06:09.811Z,101262.42
2022-08-12T01:09:00.083Z,101264.11
2022-08-12T01:11:32.235Z,101268.94
2022-08-12T01:14:04.145Z,101262.27
2022-08-12T01:16:36.130Z,101265.38
2022-08-12T01:19:07.295Z,101269.42
2022-08-12T01:22:00.846Z,101266.23
2022-08-12T01:24:38.452Z,101261.78
2022-08-12T01:27:11.706Z,101268.28
2022-08-12T01:29:45.383Z,101268.21
2022-08-12T01:32:19.501Z,101273.03
2022-08-12T01:35:06.016Z,101275.87
2022-08-12T01:37:45.755Z,101272.17
2022-08-12T01:40:35.377Z,101264.73
2022-08-12T01:42:55.538Z,101255.68
2022-08-12T01:45:29.167Z,101269.86
2022-08-12T01:48:21.599Z,101262.18
2022-08-12T01:51:00.405Z,101261.41
2022-08-12T01:53:50.433Z,101271.41
2022-08-12T01:56:10.554Z,101264.41
2022-08-12T01:59:02.753Z,101261.71
2022-08-12T02:01:36.181Z,101266.64
2022-08-12T02:05:01.636Z,101261.03
2022-08-12T02:07:56.526Z,101268.37
2022-08-12T02:11:05.528Z,101256.46
2022-08-12T02:13:57.557Z,101261.38
2022-08-12T02:17:05.839Z,101260.03
2022-08-12T02:20:02.359Z,101251.02
2022-08-12T02:22:39.358Z,101247.54
2022-08-12T02:25:29.533Z,101254.49
2022-08-12T02:28:06.127Z,101255.80
2022-08-12T02:30:42.251Z,101249.54
2022-08-12T02:33:14.257Z,101248.41
2022-08-12T02:35:45.940Z,101248.11
2022-08-12T02:38:17.911Z,101250.94
2022-08-12T02:40:51.785Z,101240.05
2022-08-12T02:43:49.387Z,101236.64
2022-08-12T02:46:29.140Z,101247.45
2022-08-12T02:49:02.957Z,101248.81
2022-08-12T02:51:36.155Z,101240.13
2022-08-12T02:54:09.106Z,101235.48
2022-08-12T02:56:50.633Z,101238.38
2022-08-12T02:59:17.873Z,101239.08
2022-08-12T03:01:54.955Z,101238.12
2022-08-12T03:04:45.920Z,101234.23
2022-08-12T03:07:55.867Z,101240.79
2022-08-12T03:10:15.894Z,101234.35
2022-08-12T03:12:50.950Z,101232.69
2022-08-12T03:15:18.402Z,101226.25
2022-08-12T03:18:26.137Z,101224.23
2022-08-12T03:20:36.898Z,101224.53
2022-08-12T03:23:19.322Z,101224.53
2022-08-12T03:25:46.196Z,101216.73
2022-08-12T03:28:24.063Z,101258.33
2022-08-12T03:30:56.805Z,101252.14
2022-08-12T03:33:27.853Z,101248.38
2022-08-12T03:36:01.830Z,101252.20
2022-08-12T03:38:37.160Z,101247.75
2022-08-12T03:41:28.794Z,101248.72
2022-08-12T03:44:39.034Z,101243.33
2022-08-12T03:47:50.593Z,101245.93
2022-08-12T03:50:41.308Z,101239.12
2022-08-12T03:53:30.549Z,101248.55
2022-08-12T03:56:19.709Z,101255.70
2022-08-12T03:59:09.077Z,101257.25
2022-08-12T04:01:42.190Z,101260.33
2022-08-12T04:04:13.343Z,101262.23
2022-08-12T04:06:46.138Z,101259.15
2022-08-12T04:09:18.762Z,101265.48
2022-08-12T04:12:09.146Z,101264.59
2022-08-12T04:14:41.608Z,101265.28
2022-08-12T04:17:13.887Z,101262.87
2022-08-12T04:19:47.417Z,101261.02
2022-08-12T04:22:18.899Z,101264.12
2022-08-12T04:24:50.636Z,101273.04
2022-08-12T04:27:21.835Z,101286.20
2022-08-12T04:30:29.041Z,101281.02
2022-08-12T04:32:29.110Z,101276.52
2022-08-12T04:35:00.002Z,101278.77
2022-08-12T04:37:58.353Z,101287.33
2022-08-12T04:40:05.712Z,101284.27
2022-08-12T04:42:36.935Z,101289.81
2022-08-12T04:45:08.830Z,101277.17
2022-08-12T04:47:41.532Z,101271.77
2022-08-12T04:50:34.461Z,101270.09
2022-08-12T04:52:47.882Z,101274.40
2022-08-12T04:55:19.640Z,101276.80
2022-08-12T04:57:50.572Z,101274.89
2022-08-12T05:00:22.833Z,101285.78
2022-08-12T05:02:53.748Z,101285.61
2022-08-12T05:05:25.495Z,101281.98
2022-08-12T05:07:56.676Z,101284.53
2022-08-12T05:10:33.827Z,101270.70
2022-08-12T05:13:03.468Z,101271.94
2022-08-12T05:15:36.182Z,101266.63
2022-08-12T05:18:17.899Z,101262.13
2022-08-12T05:20:40.750Z,101262.56
2022-08-12T05:23:20.456Z,101244.33
2022-08-12T05:25:54.816Z,101253.85
2022-08-12T05:28:27.600Z,101246.50
2022-08-12T05:31:01.541Z,101240.73
2022-08-12T05:33:40.683Z,101250.94
2022-08-12T05:36:15.312Z,101245.80
2022-08-12T05:39:00.860Z,101249.48
2022-08-12T05:41:35.529Z,101240.59
2022-08-12T05:44:13.167Z,101236.61
2022-08-12T05:46:44.290Z,101236.45
2022-08-12T05:49:15.157Z,101238.20
2022-08-12T05:51:46.115Z,101233.41
2022-08-12T05:54:17.178Z,101230.64
2022-08-12T05:56:49.357Z,101235.07
2022-08-12T05:59:22.251Z,101231.41
2022-08-12T06:02:12.500Z,101238.59
2022-08-12T06:04:27.737Z,101247.48
2022-08-12T06:06:58.901Z,101246.42
2022-08-12T06:09:31.422Z,101255.96
2022-08-12T06:12:06.092Z,101259.52
2022-08-12T06:14:39.269Z,101260.49
2022-08-12T06:17:11.040Z,101264.20
2022-08-12T06:20:27.945Z,101267.27
2022-08-12T06:22:16.097Z,101248.52
2022-08-12T06:24:48.681Z,101246.30
2022-08-12T06:27:19.642Z,101248.42
2022-08-12T06:30:06.953Z,101244.71
2022-08-12T06:32:27.517Z,101248.42
2022-08-12T06:35:26.329Z,101250.48
2022-08-12T06:37:29.517Z,101251.43
2022-08-12T06:40:03.856Z,101259.36
2022-08-12T06:42:51.067Z,101260.67
2022-08-12T06:45:23.015Z,101261.00
2022-08-12T06:47:57.168Z,101263.78
2022-08-12T06:50:29.938Z,101264.80
2022-08-12T06:53:02.777Z,101260.47
2022-08-12T06:55:34.217Z,101261.09
2022-08-12T06:58:10.559Z,101267.91
2022-08-12T07:00:40.501Z,101260.34
2022-08-12T07:03:16.428Z,101261.05
2022-08-12T07:05:47.669Z,101265.73
2022-08-12T07:08:20.787Z,101264.77
2022-08-12T07:10:57.250Z,101262.80
2022-08-12T07:14:11.968Z,101267.02
2022-08-12T07:16:17.070Z,101257.70
2022-08-12T07:18:51.819Z,101256.20
2022-08-12T07:21:24.698Z,101257.84
2022-08-12T07:23:57.290Z,101254.41
2022-08-12T07:26:29.923Z,101255.41
2022-08-12T07:29:02.213Z,101249.56
2022-08-12T07:31:33.474Z,101244.28
2022-08-12T07:34:05.322Z,101250.20
2022-08-12T07:36:36.212Z,101244.36
2022-08-12T07:39:08.281Z,101251.03
2022-08-12T07:41:41.158Z,101244.25
2022-08-12T07:44:14.366Z,101237.57
2022-08-12T07:46:47.186Z,101229.91
2022-08-12T07:49:18.746Z,101229.45
2022-08-12T07:51:49.899Z,101230.43
2022-08-12T07:54:21.696Z,101225.06
2022-08-12T07:56:53.528Z,101231.63
2022-08-12T07:59:26.634Z,101229.11
2022-08-12T08:02:00.581Z,101231.56
2022-08-12T08:04:49.958Z,101229.50
2022-08-12T08:07:27.829Z,101227.25
2022-08-12T08:10:02.873Z,101231.40
2022-08-12T08:12:52.396Z,101226.45
2022-08-12T08:15:44.456Z,101225.56
2022-08-12T08:18:06.651Z,101226.58
2022-08-12T08:20:43.328Z,101219.39
2022-08-12T08:23:17.633Z,101223.37
2022-08-12T08:25:52.395Z,101224.59
2022-08-12T08:28:24.717Z,101231.13
2022-08-12T08:30:58.462Z,101224.33
2022-08-12T08:34:01.371Z,101224.17
2022-08-12T08:36:03.394Z,101222.84
2022-08-12T08:38:35.469Z,101224.34
2022-08-12T08:42:17.011Z,101225.33
2022-08-12T08:44:00.396Z,101228.81
2022-08-12T08:46:33.159Z,101225.09
2022-08-12T08:49:05.775Z,101228.06
2022-08-12T08:51:37.492Z,101224.20
2022-08-12T08:54:15.558Z,101223.66
2022-08-12T08:56:48.351Z,101229.73
2022-08-12T08:59:22.337Z,101213.40
2022-08-12T09:01:53.630Z,101210.93
2022-08-12T09:07:00.394Z,101208.36
2022-08-12T09:10:01.299Z,101209.89
2022-08-12T09:12:27.514Z,101204.42
2022-08-12T09:14:59.250Z,101224.75
2022-08-12T09:17:42.020Z,101214.12
2022-08-12T09:20:03.317Z,101227.34
2022-08-12T09:22:49.235Z,101220.41
2022-08-12T09:25:07.782Z,101225.66
2022-08-12T09:28:15.907Z,101222.55
2022-08-12T09:30:16.419Z,101225.13
2022-08-12T09:33:05.152Z,101222.08
2022-08-12T09:35:42.802Z,101226.98
2022-08-12T09:38:27.783Z,101221.72
2022-08-12T09:41:01.248Z,101229.30
2022-08-12T09:43:46.884Z,101225.84
2022-08-12T09:46:25.216Z,101226.09
2022-08-12T09:48:56.131Z,101215.53
2022-08-12T09:51:22.535Z,101214.91
2022-08-12T09:54:34.595Z,101208.77
2022-08-12T09:56:59.022Z,101203.66
2022-08-12T09:59:03.016Z,101207.83
2022-08-12T10:01:35.647Z,101208.98
2022-08-12T10:04:11.800Z,101203.35
2022-08-12T10:06:55.551Z,101195.73
2022-08-12T10:09:18.870Z,101187.34
2022-08-12T10:12:13.003Z,101180.09
2022-08-12T10:14:49.830Z,101182.72
2022-08-12T10:17:19.903Z,101181.27
2022-08-12T10:19:53.335Z,101175.89
2022-08-12T10:22:36.875Z,101177.84
2022-08-12T10:25:17.485Z,101168.86
2022-08-12T10:28:12.672Z,101174.29
2022-08-12T10:30:46.968Z,101164.20
2022-08-12T10:33:18.379Z,101151.95
2022-08-12T10:35:50.087Z,101151.72
2022-08-12T10:38:34.247Z,101143.53
2022-08-12T10:41:19.003Z,101144.77
2022-08-12T10:43:55.116Z,101132.66
2022-08-12T10:46:21.719Z,101139.79
2022-08-12T10:48:58.403Z,101140.67
2022-08-12T10:52:03.852Z,101136.51
2022-08-12T10:54:02.342Z,101134.05
2022-08-12T10:56:35.501Z,101133.58
2022-08-12T10:59:11.165Z,101130.45
2022-08-12T11:04:14.128Z,101137.24
2022-08-12T11:04:15.895Z,101137.04
2022-08-12T11:07:09.474Z,101139.08
2022-08-12T11:09:55.547Z,101132.03
2022-08-12T11:12:35.638Z,101133.42
2022-08-12T11:14:49.828Z,101113.28
2022-08-12T11:17:34.736Z,101119.30
2022-08-12T11:19:46.731Z,101128.84
2022-08-12T11:22:18.876Z,101117.67
2022-08-12T11:24:53.844Z,101128.80
2022-08-12T11:27:25.697Z,101137.04
2022-08-12T11:30:05.948Z,101125.97
2022-08-12T11:32:31.738Z,101122.52
2022-08-12T11:35:04.929Z,101122.65
2022-08-12T11:37:59.460Z,101113.60
2022-08-12T11:40:11.317Z,101115.45
2022-08-12T11:42:46.959Z,101117.37
2022-08-12T11:45:16.964Z,101120.01
2022-08-12T11:47:49.221Z,101111.70
2022-08-12T11:50:20.841Z,101110.31
2022-08-12T11:52:56.715Z,101099.46
2022-08-12T11:55:29.612Z,101107.16
2022-08-12T11:58:10.054Z,101098.45
2022-08-12T12:03:06.538Z,101101.45
2022-08-12T12:05:41.674Z,101101.56
2022-08-12T12:08:41.776Z,101108.63
2022-08-12T12:10:45.099Z,101098.86
2022-08-12T12:13:23.305Z,101103.41
2022-08-12T12:15:50.436Z,101084.83
2022-08-12T12:18:30.905Z,101092.80
2022-08-12T12:21:04.556Z,101099.31
2022-08-12T12:23:38.208Z,101099.19
2022-08-12T12:26:35.484Z,101094.50
2022-08-12T12:28:54.306Z,101096.39
2022-08-12T12:32:11.071Z,101088.62
2022-08-12T12:33:56.952Z,101080.46
2022-08-12T12:36:29.604Z,101072.38
2022-08-12T12:38:55.292Z,101065.64
2022-08-12T12:42:42.551Z,101068.73
2022-08-12T12:44:04.421Z,101060.20
2022-08-12T12:46:32.284Z,101067.02
2022-08-12T12:49:10.828Z,101054.10
2022-08-12T12:51:55.114Z,101052.41
2022-08-12T12:54:10.894Z,101057.92
2022-08-12T12:56:43.271Z,101057.41
2022-08-12T12:59:54.861Z,101059.83
2022-08-12T13:01:47.052Z,101067.51
2022-08-12T13:04:19.555Z,101057.76
2022-08-12T13:06:58.705Z,101052.59
2022-08-12T13:09:36.352Z,101054.31
2022-08-12T13:12:09.155Z,101048.41
2022-08-12T13:14:41.686Z,101041.03
2022-08-12T13:17:19.852Z,101034.89
2022-08-12T13:19:55.166Z,101041.92
2022-08-12T13:22:27.585Z,101035.66
2022-08-12T13:25:00.047Z,101030.71
2022-08-12T13:27:42.037Z,101026.53
2022-08-12T13:30:17.803Z,101029.70
2022-08-12T13:32:57.169Z,101025.38
2022-08-12T13:36:02.821Z,101026.64
2022-08-12T13:38:03.369Z,101024.91
2022-08-12T13:40:35.366Z,101018.58
2022-08-12T13:43:07.695Z,101019.92
2022-08-12T13:45:39.039Z,101006.00
2022-08-12T13:48:10.622Z,101009.30
2022-08-12T13:50:43.893Z,101008.36
2022-08-12T13:53:24.004Z,101005.14
2022-08-12T13:56:01.458Z,100999.82
2022-08-12T13:58:24.629Z,100997.95
2022-08-12T14:00:57.209Z,101002.78
2022-08-12T14:03:51.556Z,100997.75
2022-08-12T14:06:06.395Z,100993.30
2022-08-12T14:08:38.090Z,100994.30
2022-08-12T14:11:12.393Z,101000.64
2022-08-12T14:14:05.272Z,101001.84
2022-08-12T14:16:46.836Z,100992.45
2022-08-12T14:18:51.859Z,100993.80
2022-08-12T14:21:23.194Z,100999.69
2022-08-12T14:24:05.130Z,100998.29
2022-08-12T14:26:35.948Z,100998.97
2022-08-12T14:29:10.477Z,100993.47
2022-08-12T14:31:44.513Z,101009.80
2022-08-12T14:34:18.832Z,101012.89
2022-08-12T14:36:53.276Z,101004.11
2022-08-12T14:39:24.475Z,101001.34
2022-08-12T14:41:57.499Z,101005.16
2022-08-12T14:44:58.904Z,101002.25
2022-08-12T14:47:07.765Z,101007.73
2022-08-12T14:50:41.494Z,100996.72
2022-08-12T14:52:58.919Z,100992.57
2022-08-12T14:57:23.582Z,100992.77
2022-08-12T15:00:09.145Z,100990.88
2022-08-12T15:02:41.681Z,100985.93
2022-08-12T15:05:12.660Z,100991.05
2022-08-12T15:07:51.259Z,100985.75
2022-08-12T15:10:31.059Z,100985.89
2022-08-12T15:12:54.882Z,100986.06
2022-08-12T15:15:26.292Z,100982.46
2022-08-12T15:18:03.826Z,100981.09
2022-08-12T15:20:38.108Z,100987.27
2022-08-12T15:23:17.917Z,100978.78
2022-08-12T15:25:47.562Z,100987.55
2022-08-12T15:28:22.264Z,100989.17
2022-08-12T15:30:54.059Z,100974.03
2022-08-12T15:33:45.236Z,100975.25
2022-08-12T15:35:59.465Z,100982.30
2022-08-12T15:38:33.524Z,100979.14
2022-08-12T15:41:05.232Z,100980.91
2022-08-12T15:44:16.854Z,100980.77
2022-08-12T15:46:15.604Z,100967.00
2022-08-12T15:48:46.669Z,100976.30
2022-08-12T15:51:59.357Z,100974.68
2022-08-12T15:54:30.996Z,100967.84
2022-08-12T15:56:39.236Z,100975.27
2022-08-12T15:59:11.966Z,100964.66
2022-08-12T16:01:45.084Z,100966.36
2022-08-12T16:04:17.162Z,100969.00
2022-08-12T16:07:04.627Z,100963.26
2022-08-12T16:09:45.414Z,100962.47
2022-08-12T16:11:59.580Z,100963.26
2022-08-12T16:14:34.767Z,100966.49
2022-08-12T16:17:08.765Z,100952.86
2022-08-12T16:20:03.687Z,100955.06
2022-08-12T16:22:14.889Z,100954.83
2022-08-12T16:24:47.541Z,100955.41
2022-08-12T16:27:20.147Z,100953.48
2022-08-12T16:29:54.448Z,100952.47
2022-08-12T16:32:31.734Z,100959.70
2022-08-12T16:35:02.127Z,100955.08
2022-08-12T16:38:28.234Z,100955.73
2022-08-12T16:40:09.100Z,100956.92
2022-08-12T16:42:54.555Z,100954.50
2022-08-12T16:45:19.476Z,100957.41
2022-08-12T16:47:58.519Z,100952.80
2022-08-12T16:50:30.794Z,100951.45
2022-08-12T16:53:03.493Z,100951.07
2022-08-12T16:55:48.327Z,100944.69
2022-08-12T16:58:30.409Z,100940.66
2022-08-12T17:00:55.342Z,100946.63
2022-08-12T17:03:30.588Z,100946.78
2022-08-12T17:06:01.889Z,100943.52
2022-08-12T17:08:34.740Z,100937.39
2022-08-12T17:11:08.553Z,100948.81
2022-08-12T17:13:53.177Z,100941.09
2022-08-12T17:16:17.816Z,100935.13
2022-08-12T17:18:57.370Z,100940.97
2022-08-12T17:21:41.260Z,100941.92
2022-08-12T17:23:56.066Z,100939.81
2022-08-12T17:26:31.228Z,100940.22
2022-08-12T17:29:04.214Z,100934.17
2022-08-12T17:32:01.265Z,100934.84
2022-08-12T17:34:17.413Z,100943.75
2022-08-12T17:36:45.433Z,100935.47
2022-08-12T17:39:18.223Z,100945.08
2022-08-12T17:41:56.735Z,100939.23
2022-08-12T17:44:23.050Z,100943.91
2022-08-12T17:46:56.633Z,100944.09
2022-08-12T17:50:02.397Z,100954.33
2022-08-12T17:52:03.318Z,100947.41
2022-08-12T17:54:37.260Z,100956.25
2022-08-12T17:57:16.378Z,100946.05
2022-08-12T17:59:47.869Z,100957.72
2022-08-12T18:02:25.525Z,100958.75
2022-08-12T18:05:04.842Z,100956.17
2022-08-12T18:07:24.569Z,100959.29
2022-08-12T18:09:59.202Z,100959.22
2022-08-12T18:12:35.623Z,100964.08
2022-08-12T18:15:11.232Z,100965.24
2022-08-12T18:17:46.969Z,100960.42
2022-08-12T18:20:18.862Z,100963.78
2022-08-12T18:22:52.356Z,100958.10
2022-08-12T18:26:14.023Z,100958.94
2022-08-12T18:28:27.496Z,100957.39
2022-08-12T18:30:55.197Z,100955.16
2022-08-12T18:33:27.008Z,100960.03
2022-08-12T18:35:58.459Z,100954.30
2022-08-12T18:38:29.495Z,100953.20
2022-08-12T18:41:22.509Z,100955.59
2022-08-12T18:43:59.402Z,100954.88
2022-08-12T18:46:53.798Z,100963.25
2022-08-12T18:49:35.008Z,100965.38
2022-08-12T18:52:05.321Z,100960.20
2022-08-12T18:54:48.983Z,100966.58
2022-08-12T18:57:45.831Z,100958.66
2022-08-12T19:00:01.084Z,100960.00
2022-08-12T19:02:27.525Z,100958.87
2022-08-12T19:04:59.797Z,100957.17
2022-08-12T19:07:50.003Z,100951.23
2022-08-12T19:10:04.892Z,100970.39
2022-08-12T19:12:57.743Z,100958.04
2022-08-12T19:15:30.329Z,100958.92
2022-08-12T19:18:03.496Z,100958.21
2022-08-12T19:20:37.625Z,100958.06
2022-08-12T19:23:16.618Z,100961.81
2022-08-12T19:26:00.635Z,100961.09
2022-08-12T19:28:19.418Z,100959.80
2022-08-12T19:31:10.099Z,100961.66
2022-08-12T19:34:06.465Z,100961.37
2022-08-12T19:36:25.089Z,100958.89
2022-08-12T19:38:56.794Z,100959.75
2022-08-12T19:41:24.668Z,100959.01
2022-08-12T19:44:00.503Z,100952.52
2022-08-12T19:46:34.782Z,100947.20
2022-08-12T19:49:06.005Z,100958.42
2022-08-12T19:51:42.168Z,100971.80
2022-08-12T19:54:14.301Z,100961.73
2022-08-12T19:56:49.445Z,100961.25
2022-08-12T19:59:43.578Z,100965.69
2022-08-12T20:02:13.551Z,100964.16
2022-08-12T20:06:06.483Z,100964.11
2022-08-12T20:07:24.560Z,100973.14
2022-08-12T20:09:57.665Z,100985.72
2022-08-12T20:12:53.824Z,101003.92
2022-08-12T20:15:11.555Z,101013.02
2022-08-12T20:17:50.663Z,101009.13
2022-08-12T20:20:19.652Z,101004.06
2022-08-12T20:22:53.228Z,100988.30
2022-08-12T20:25:28.475Z,100976.19
2022-08-12T20:28:04.140Z,100978.55
2022-08-12T20:30:38.151Z,100970.16
2022-08-12T20:33:06.121Z,100969.97
2022-08-12T20:36:06.865Z,100961.10
2022-08-12T20:38:26.886Z,100971.31
2022-08-12T20:40:47.985Z,100974.96
2022-08-12T20:43:18.945Z,100975.61
2022-08-12T20:45:57.635Z,100972.03
2022-08-12T20:48:25.288Z,100967.33
2022-08-12T20:51:04.589Z,100970.50
2022-08-12T20:53:54.247Z,100961.33
2022-08-12T20:56:21.452Z,100965.76
2022-08-12T20:58:58.394Z,100972.79
2022-08-12T21:01:46.047Z,100976.77
2022-08-12T21:04:21.793Z,100975.03
2022-08-12T21:07:04.452Z,100984.25
2022-08-12T21:09:41.039Z,100980.83
2022-08-12T21:12:28.193Z,100977.13
2022-08-12T21:14:53.399Z,100983.19
2022-08-12T21:17:20.209Z,100982.92
2022-08-12T21:19:54.431Z,100976.67
2022-08-12T21:22:27.145Z,100975.55
2022-08-12T21:24:58.583Z,100973.80
2022-08-12T21:27:58.698Z,100978.63
2022-08-12T21:30:04.828Z,100986.80
2022-08-12T21:32:40.402Z,100978.45
2022-08-12T21:35:10.521Z,100986.63
2022-08-12T21:37:52.999Z,100986.73
2022-08-12T21:40:19.332Z,100994.27
2022-08-12T21:42:50.638Z,100995.64
2022-08-12T21:45:47.215Z,100996.03
2022-08-12T21:47:54.388Z,100996.00
2022-08-12T21:50:29.298Z,101001.52
2022-08-12T21:52:59.067Z,101004.44
2022-08-12T21:55:34.515Z,101001.55
2022-08-12T21:58:16.704Z,101008.77
2022-08-12T22:00:47.556Z,101009.03
2022-08-12T22:04:03.694Z,101013.47
2022-08-12T22:06:31.807Z,101009.56
2022-08-12T22:08:58.114Z,101013.34
2022-08-12T22:11:42.139Z,101011.02
2022-08-12T22:14:08.736Z,101011.04
2022-08-12T22:16:46.935Z,101016.95
2022-08-12T22:19:12.541Z,101016.01
2022-08-12T22:21:48.501Z,101009.83
2022-08-12T22:24:25.721Z,101005.12
2022-08-12T22:26:49.426Z,101006.91
2022-08-12T22:29:39.175Z,101010.50
2022-08-12T22:32:12.292Z,101010.58
2022-08-12T22:34:44.969Z,101001.20
2022-08-12T22:37:20.007Z,101004.78
2022-08-12T22:39:49.599Z,101013.63
2022-08-12T22:42:40.000Z,101012.48
2022-08-12T22:45:30.728Z,101006.44
2022-08-12T22:48:01.783Z,100986.02
2022-08-12T22:50:33.985Z,100988.25
2022-08-12T22:53:17.709Z,100991.63
2022-08-12T22:55:59.179Z,100988.98
2022-08-12T22:58:21.575Z,100984.97
2022-08-12T23:00:54.499Z,100989.77
2022-08-12T23:03:47.955Z,100991.23
2022-08-12T23:06:10.243Z,100994.96
2022-08-12T23:08:32.759Z,101007.12
2022-08-12T23:11:04.712Z,101019.27
2022-08-12T23:13:55.413Z,101022.46
2022-08-12T23:16:31.145Z,101030.13
2022-08-12T23:19:10.323Z,101029.52
2022-08-12T23:22:03.339Z,101027.41
2022-08-12T23:24:10.928Z,101027.91
2022-08-12T23:27:00.278Z,101033.08
2022-08-12T23:29:42.757Z,101027.91
2022-08-12T23:32:09.945Z,101021.01
2022-08-12T23:34:40.416Z,101015.41
2022-08-12T23:37:18.129Z,101017.55
2022-08-12T23:40:13.499Z,101017.64
2022-08-12T23:42:30.939Z,101019.02
2022-08-12T23:44:58.281Z,101003.67
2022-08-12T23:47:30.746Z,101002.08
2022-08-12T23:50:12.780Z,101001.23
2022-08-12T23:52:35.942Z,100998.50
2022-08-12T23:55:24.416Z,101005.91
2022-08-12T23:58:17.933Z,100995.75
